sensor_id;sensor_type;location;lat;lon;timestamp;temperature;humidity
24262;DHT22;12385;51.412;5.540;2023-09-30T00:00:14;12.50;99.90
24262;DHT22;12385;51.412;5.540;2023-09-30T00:02:40;12.50;99.90
24262;DHT22;12385;51.412;5.540;2023-09-30T00:05:06;12.50;99.90
24262;DHT22;12385;51.412;5.540;2023-09-30T00:07:32;12.50;99.90
24262;DHT22;12385;51.412;5.540;2023-09-30T00:09:58;12.40;99.90
24262;DHT22;12385;51.412;5.540;2023-09-30T00:12:25;12.50;99.90
24262;DHT22;12385;51.412;5.540;2023-09-30T00:14:50;12.50;99.90
24262;DHT22;12385;51.412;5.540;2023-09-30T00:17:16;12.40;99.90
24262;DHT22;12385;51.412;5.540;2023-09-30T00:19:41;12.40;99.90
24262;DHT22;12385;51.412;5.540;2023-09-30T00:22:07;12.50;99.90
24262;DHT22;12385;51.412;5.540;2023-09-30T00:24:33;12.50;99.90
24262;DHT22;12385;51.412;5.540;2023-09-30T00:26:59;12.50;99.90
24262;DHT22;12385;51.412;5.540;2023-09-30T00:29:25;12.50;99.90
24262;DHT22;12385;51.412;5.540;2023-09-30T00:31:52;12.50;99.90
24262;DHT22;12385;51.412;5.540;2023-09-30T00:34:18;12.50;99.90
24262;DHT22;12385;51.412;5.540;2023-09-30T00:36:43;12.50;99.90
24262;DHT22;12385;51.412;5.540;2023-09-30T00:39:09;12.50;99.90
24262;DHT22;12385;51.412;5.540;2023-09-30T00:41:35;12.50;99.90
24262;DHT22;12385;51.412;5.540;2023-09-30T00:44:02;12.50;99.90
24262;DHT22;12385;51.412;5.540;2023-09-30T00:46:37;12.60;99.90
24262;DHT22;12385;51.412;5.540;2023-09-30T00:49:03;12.60;99.90
24262;DHT22;12385;51.412;5.540;2023-09-30T00:51:29;12.50;99.90
24262;DHT22;12385;51.412;5.540;2023-09-30T00:53:58;12.50;99.90
24262;DHT22;12385;51.412;5.540;2023-09-30T00:56:27;12.50;99.90
24262;DHT22;12385;51.412;5.540;2023-09-30T00:58:53;12.50;99.90
24262;DHT22;12385;51.412;5.540;2023-09-30T01:01:20;12.50;99.90
24262;DHT22;12385;51.412;5.540;2023-09-30T01:03:47;12.50;99.90
24262;DHT22;12385;51.412;5.540;2023-09-30T01:06:13;12.50;99.90
24262;DHT22;12385;51.412;5.540;2023-09-30T01:08:40;12.60;99.90
24262;DHT22;12385;51.412;5.540;2023-09-30T01:11:07;12.50;99.90
24262;DHT22;12385;51.412;5.540;2023-09-30T01:13:33;12.60;99.90
24262;DHT22;12385;51.412;5.540;2023-09-30T01:16:07;12.50;99.90
24262;DHT22;12385;51.412;5.540;2023-09-30T01:18:35;12.50;99.90
24262;DHT22;12385;51.412;5.540;2023-09-30T01:21:05;12.40;99.90
24262;DHT22;12385;51.412;5.540;2023-09-30T01:23:31;12.40;99.90
24262;DHT22;12385;51.412;5.540;2023-09-30T01:25:57;12.40;99.90
24262;DHT22;12385;51.412;5.540;2023-09-30T01:28:26;12.30;99.90
24262;DHT22;12385;51.412;5.540;2023-09-30T01:30:52;12.30;99.90
24262;DHT22;12385;51.412;5.540;2023-09-30T01:33:17;12.20;99.90
24262;DHT22;12385;51.412;5.540;2023-09-30T01:35:44;12.20;99.90
24262;DHT22;12385;51.412;5.540;2023-09-30T01:38:10;12.20;99.90
24262;DHT22;12385;51.412;5.540;2023-09-30T01:40:36;12.20;99.90
24262;DHT22;12385;51.412;5.540;2023-09-30T01:43:03;12.20;99.90
24262;DHT22;12385;51.412;5.540;2023-09-30T01:45:29;12.20;99.90
24262;DHT22;12385;51.412;5.540;2023-09-30T01:47:54;12.10;99.90
24262;DHT22;12385;51.412;5.540;2023-09-30T01:50:20;12.10;99.90
24262;DHT22;12385;51.412;5.540;2023-09-30T01:52:45;12.10;99.90
24262;DHT22;12385;51.412;5.540;2023-09-30T01:55:11;12.00;99.90
24262;DHT22;12385;51.412;5.540;2023-09-30T01:57:37;12.00;99.90
24262;DHT22;12385;51.412;5.540;2023-09-30T02:00:03;12.00;99.90
24262;DHT22;12385;51.412;5.540;2023-09-30T02:02:31;12.00;99.90
24262;DHT22;12385;51.412;5.540;2023-09-30T02:04:56;11.90;99.90
24262;DHT22;12385;51.412;5.540;2023-09-30T02:07:22;11.90;99.90
24262;DHT22;12385;51.412;5.540;2023-09-30T02:09:48;11.90;99.90
24262;DHT22;12385;51.412;5.540;2023-09-30T02:12:14;11.80;99.90
24262;DHT22;12385;51.412;5.540;2023-09-30T02:14:40;11.80;99.90
24262;DHT22;12385;51.412;5.540;2023-09-30T02:17:05;11.80;99.90
24262;DHT22;12385;51.412;5.540;2023-09-30T02:19:31;11.80;99.90
24262;DHT22;12385;51.412;5.540;2023-09-30T02:21:59;11.80;99.90
24262;DHT22;12385;51.412;5.540;2023-09-30T02:24:25;11.90;99.90
24262;DHT22;12385;51.412;5.540;2023-09-30T02:26:50;11.90;99.90
24262;DHT22;12385;51.412;5.540;2023-09-30T02:29:16;11.90;99.90
24262;DHT22;12385;51.412;5.540;2023-09-30T02:31:42;11.80;99.90
24262;DHT22;12385;51.412;5.540;2023-09-30T02:34:08;11.80;99.90
24262;DHT22;12385;51.412;5.540;2023-09-30T02:36:34;11.80;99.90
24262;DHT22;12385;51.412;5.540;2023-09-30T02:39:04;11.80;99.90
24262;DHT22;12385;51.412;5.540;2023-09-30T02:41:30;11.80;99.90
24262;DHT22;12385;51.412;5.540;2023-09-30T02:43:55;11.80;99.90
24262;DHT22;12385;51.412;5.540;2023-09-30T02:46:21;11.80;99.90
24262;DHT22;12385;51.412;5.540;2023-09-30T02:48:47;11.70;99.90
24262;DHT22;12385;51.412;5.540;2023-09-30T02:51:12;11.70;99.90
24262;DHT22;12385;51.412;5.540;2023-09-30T02:53:38;11.70;99.90
24262;DHT22;12385;51.412;5.540;2023-09-30T02:56:04;11.70;99.90
24262;DHT22;12385;51.412;5.540;2023-09-30T02:58:30;11.70;99.90
24262;DHT22;12385;51.412;5.540;2023-09-30T03:00:56;11.70;99.90
24262;DHT22;12385;51.412;5.540;2023-09-30T03:03:22;11.70;99.90
24262;DHT22;12385;51.412;5.540;2023-09-30T03:05:48;11.70;99.90
24262;DHT22;12385;51.412;5.540;2023-09-30T03:08:15;11.70;99.90
24262;DHT22;12385;51.412;5.540;2023-09-30T03:10:41;11.70;99.90
24262;DHT22;12385;51.412;5.540;2023-09-30T03:13:07;11.60;99.90
24262;DHT22;12385;51.412;5.540;2023-09-30T03:15:35;11.70;99.90
24262;DHT22;12385;51.412;5.540;2023-09-30T03:18:00;11.60;99.90
24262;DHT22;12385;51.412;5.540;2023-09-30T03:20:26;11.60;99.90
24262;DHT22;12385;51.412;5.540;2023-09-30T03:22:52;11.60;99.90
24262;DHT22;12385;51.412;5.540;2023-09-30T03:25:20;11.60;99.90
24262;DHT22;12385;51.412;5.540;2023-09-30T03:27:46;11.60;99.90
24262;DHT22;12385;51.412;5.540;2023-09-30T03:30:16;11.60;99.90
24262;DHT22;12385;51.412;5.540;2023-09-30T03:32:42;11.60;99.90
24262;DHT22;12385;51.412;5.540;2023-09-30T03:35:09;11.60;99.90
24262;DHT22;12385;51.412;5.540;2023-09-30T03:37:45;11.60;99.90
24262;DHT22;12385;51.412;5.540;2023-09-30T03:40:12;11.60;99.90
24262;DHT22;12385;51.412;5.540;2023-09-30T03:42:42;11.50;99.90
24262;DHT22;12385;51.412;5.540;2023-09-30T03:45:09;11.50;99.90
24262;DHT22;12385;51.412;5.540;2023-09-30T03:47:39;11.50;99.90
24262;DHT22;12385;51.412;5.540;2023-09-30T03:50:05;11.50;99.90
24262;DHT22;12385;51.412;5.540;2023-09-30T03:52:38;11.50;99.90
24262;DHT22;12385;51.412;5.540;2023-09-30T03:55:04;11.50;99.90
24262;DHT22;12385;51.412;5.540;2023-09-30T03:57:34;11.40;99.90
24262;DHT22;12385;51.412;5.540;2023-09-30T04:00:03;11.50;99.90
24262;DHT22;12385;51.412;5.540;2023-09-30T04:02:32;11.40;99.90
24262;DHT22;12385;51.412;5.540;2023-09-30T04:04:59;11.40;99.90
24262;DHT22;12385;51.412;5.540;2023-09-30T04:07:25;11.40;99.90
24262;DHT22;12385;51.412;5.540;2023-09-30T04:09:55;11.40;99.90
24262;DHT22;12385;51.412;5.540;2023-09-30T04:12:21;11.30;99.90
24262;DHT22;12385;51.412;5.540;2023-09-30T04:14:51;11.30;99.90
24262;DHT22;12385;51.412;5.540;2023-09-30T04:17:17;11.30;99.90
24262;DHT22;12385;51.412;5.540;2023-09-30T04:19:42;11.20;99.90
24262;DHT22;12385;51.412;5.540;2023-09-30T04:22:08;11.30;99.90
24262;DHT22;12385;51.412;5.540;2023-09-30T04:24:34;11.30;99.90
24262;DHT22;12385;51.412;5.540;2023-09-30T04:26:59;11.30;99.90
24262;DHT22;12385;51.412;5.540;2023-09-30T04:29:28;11.30;99.90
24262;DHT22;12385;51.412;5.540;2023-09-30T04:31:58;11.30;99.90
24262;DHT22;12385;51.412;5.540;2023-09-30T04:34:24;11.30;99.90
24262;DHT22;12385;51.412;5.540;2023-09-30T04:36:49;11.30;99.90
24262;DHT22;12385;51.412;5.540;2023-09-30T04:39:15;11.30;99.90
24262;DHT22;12385;51.412;5.540;2023-09-30T04:41:41;11.30;99.90
24262;DHT22;12385;51.412;5.540;2023-09-30T04:44:09;11.20;99.90
24262;DHT22;12385;51.412;5.540;2023-09-30T04:46:36;11.30;99.90
24262;DHT22;12385;51.412;5.540;2023-09-30T04:49:08;11.20;99.90
24262;DHT22;12385;51.412;5.540;2023-09-30T04:51:34;11.20;99.90
24262;DHT22;12385;51.412;5.540;2023-09-30T04:54:00;11.20;99.90
24262;DHT22;12385;51.412;5.540;2023-09-30T04:56:27;11.20;99.90
24262;DHT22;12385;51.412;5.540;2023-09-30T04:58:53;11.20;99.90
24262;DHT22;12385;51.412;5.540;2023-09-30T05:01:18;11.20;99.90
24262;DHT22;12385;51.412;5.540;2023-09-30T05:03:45;11.20;99.90
24262;DHT22;12385;51.412;5.540;2023-09-30T05:06:14;11.20;99.90
24262;DHT22;12385;51.412;5.540;2023-09-30T05:08:39;11.20;99.90
24262;DHT22;12385;51.412;5.540;2023-09-30T05:11:05;11.20;99.90
24262;DHT22;12385;51.412;5.540;2023-09-30T05:13:30;11.20;99.90
24262;DHT22;12385;51.412;5.540;2023-09-30T05:15:56;11.20;99.90
24262;DHT22;12385;51.412;5.540;2023-09-30T05:18:21;11.20;99.90
24262;DHT22;12385;51.412;5.540;2023-09-30T05:20:49;11.20;99.90
24262;DHT22;12385;51.412;5.540;2023-09-30T05:23:15;11.10;99.90
24262;DHT22;12385;51.412;5.540;2023-09-30T05:25:41;11.10;99.90
24262;DHT22;12385;51.412;5.540;2023-09-30T05:28:08;11.10;99.90
24262;DHT22;12385;51.412;5.540;2023-09-30T05:30:34;11.10;99.90
24262;DHT22;12385;51.412;5.540;2023-09-30T05:33:00;11.10;99.90
24262;DHT22;12385;51.412;5.540;2023-09-30T05:35:26;11.00;99.90
24262;DHT22;12385;51.412;5.540;2023-09-30T05:37:53;11.00;99.90
24262;DHT22;12385;51.412;5.540;2023-09-30T05:40:20;11.00;99.90
24262;DHT22;12385;51.412;5.540;2023-09-30T05:42:56;11.00;99.90
24262;DHT22;12385;51.412;5.540;2023-09-30T05:45:24;11.00;99.90
24262;DHT22;12385;51.412;5.540;2023-09-30T05:47:50;11.00;99.90
24262;DHT22;12385;51.412;5.540;2023-09-30T05:50:18;10.90;99.90
24262;DHT22;12385;51.412;5.540;2023-09-30T05:52:49;10.90;99.90
24262;DHT22;12385;51.412;5.540;2023-09-30T05:55:19;10.80;99.90
24262;DHT22;12385;51.412;5.540;2023-09-30T05:57:48;10.80;99.90
24262;DHT22;12385;51.412;5.540;2023-09-30T06:00:20;10.80;99.90
24262;DHT22;12385;51.412;5.540;2023-09-30T06:02:50;10.80;99.90
24262;DHT22;12385;51.412;5.540;2023-09-30T06:05:17;10.80;99.90
24262;DHT22;12385;51.412;5.540;2023-09-30T06:07:45;10.80;99.90
24262;DHT22;12385;51.412;5.540;2023-09-30T06:10:11;10.80;99.90
24262;DHT22;12385;51.412;5.540;2023-09-30T06:12:37;10.80;99.90
24262;DHT22;12385;51.412;5.540;2023-09-30T06:15:03;10.90;99.90
24262;DHT22;12385;51.412;5.540;2023-09-30T06:17:29;10.90;99.90
24262;DHT22;12385;51.412;5.540;2023-09-30T06:19:54;10.90;99.90
24262;DHT22;12385;51.412;5.540;2023-09-30T06:22:20;11.00;99.90
24262;DHT22;12385;51.412;5.540;2023-09-30T06:24:47;11.00;99.90
24262;DHT22;12385;51.412;5.540;2023-09-30T06:27:13;11.00;99.90
24262;DHT22;12385;51.412;5.540;2023-09-30T06:29:39;11.10;99.90
24262;DHT22;12385;51.412;5.540;2023-09-30T06:32:06;11.10;99.90
24262;DHT22;12385;51.412;5.540;2023-09-30T06:34:32;11.20;99.90
24262;DHT22;12385;51.412;5.540;2023-09-30T06:37:00;11.20;99.90
24262;DHT22;12385;51.412;5.540;2023-09-30T06:39:25;11.20;99.90
24262;DHT22;12385;51.412;5.540;2023-09-30T06:41:52;11.30;99.90
24262;DHT22;12385;51.412;5.540;2023-09-30T06:44:18;11.30;99.90
24262;DHT22;12385;51.412;5.540;2023-09-30T06:46:43;11.40;99.90
24262;DHT22;12385;51.412;5.540;2023-09-30T06:49:09;11.50;99.90
24262;DHT22;12385;51.412;5.540;2023-09-30T06:51:36;11.50;99.90
24262;DHT22;12385;51.412;5.540;2023-09-30T06:54:04;11.50;99.90
24262;DHT22;12385;51.412;5.540;2023-09-30T06:56:31;11.60;99.90
24262;DHT22;12385;51.412;5.540;2023-09-30T06:58:57;11.60;99.90
24262;DHT22;12385;51.412;5.540;2023-09-30T07:01:23;11.70;99.90
24262;DHT22;12385;51.412;5.540;2023-09-30T07:03:49;11.70;99.90
24262;DHT22;12385;51.412;5.540;2023-09-30T07:06:22;11.80;99.90
24262;DHT22;12385;51.412;5.540;2023-09-30T07:08:48;11.90;99.90
24262;DHT22;12385;51.412;5.540;2023-09-30T07:11:14;11.90;99.90
24262;DHT22;12385;51.412;5.540;2023-09-30T07:13:40;11.90;99.90
24262;DHT22;12385;51.412;5.540;2023-09-30T07:16:05;12.00;99.90
24262;DHT22;12385;51.412;5.540;2023-09-30T07:18:31;12.10;99.90
24262;DHT22;12385;51.412;5.540;2023-09-30T07:20:57;12.10;99.90
24262;DHT22;12385;51.412;5.540;2023-09-30T07:23:22;12.20;99.90
24262;DHT22;12385;51.412;5.540;2023-09-30T07:25:48;12.20;99.90
24262;DHT22;12385;51.412;5.540;2023-09-30T07:28:14;12.30;99.90
24262;DHT22;12385;51.412;5.540;2023-09-30T07:30:39;12.40;99.90
24262;DHT22;12385;51.412;5.540;2023-09-30T07:33:05;12.40;99.90
24262;DHT22;12385;51.412;5.540;2023-09-30T07:35:32;12.50;99.90
24262;DHT22;12385;51.412;5.540;2023-09-30T07:37:57;12.60;99.90
24262;DHT22;12385;51.412;5.540;2023-09-30T07:40:23;12.60;99.90
24262;DHT22;12385;51.412;5.540;2023-09-30T07:42:48;12.70;99.90
24262;DHT22;12385;51.412;5.540;2023-09-30T07:45:15;12.70;99.90
24262;DHT22;12385;51.412;5.540;2023-09-30T07:47:44;12.80;99.90
24262;DHT22;12385;51.412;5.540;2023-09-30T07:50:12;12.90;99.90
24262;DHT22;12385;51.412;5.540;2023-09-30T07:52:38;12.90;99.90
24262;DHT22;12385;51.412;5.540;2023-09-30T07:55:08;13.00;99.90
24262;DHT22;12385;51.412;5.540;2023-09-30T07:57:35;13.00;99.90
24262;DHT22;12385;51.412;5.540;2023-09-30T08:00:01;13.10;99.90
24262;DHT22;12385;51.412;5.540;2023-09-30T08:02:29;13.20;99.90
24262;DHT22;12385;51.412;5.540;2023-09-30T08:04:59;13.30;99.90
24262;DHT22;12385;51.412;5.540;2023-09-30T08:07:25;13.30;99.90
24262;DHT22;12385;51.412;5.540;2023-09-30T08:09:51;13.40;99.90
24262;DHT22;12385;51.412;5.540;2023-09-30T08:12:17;13.50;99.90
24262;DHT22;12385;51.412;5.540;2023-09-30T08:14:43;13.50;99.90
24262;DHT22;12385;51.412;5.540;2023-09-30T08:17:11;13.60;99.90
24262;DHT22;12385;51.412;5.540;2023-09-30T08:19:37;13.70;99.90
24262;DHT22;12385;51.412;5.540;2023-09-30T08:22:03;13.80;99.90
24262;DHT22;12385;51.412;5.540;2023-09-30T08:24:29;13.80;99.90
24262;DHT22;12385;51.412;5.540;2023-09-30T08:26:55;13.90;99.90
24262;DHT22;12385;51.412;5.540;2023-09-30T08:29:22;14.00;99.90
24262;DHT22;12385;51.412;5.540;2023-09-30T08:31:48;14.00;99.90
24262;DHT22;12385;51.412;5.540;2023-09-30T08:34:16;14.10;99.90
24262;DHT22;12385;51.412;5.540;2023-09-30T08:36:42;14.20;99.90
24262;DHT22;12385;51.412;5.540;2023-09-30T08:39:08;14.30;99.90
24262;DHT22;12385;51.412;5.540;2023-09-30T08:41:35;14.30;99.90
24262;DHT22;12385;51.412;5.540;2023-09-30T08:44:03;14.30;99.90
24262;DHT22;12385;51.412;5.540;2023-09-30T08:46:33;14.40;99.90
24262;DHT22;12385;51.412;5.540;2023-09-30T08:49:03;14.50;99.90
24262;DHT22;12385;51.412;5.540;2023-09-30T08:51:30;14.60;99.90
24262;DHT22;12385;51.412;5.540;2023-09-30T08:53:57;14.60;99.90
24262;DHT22;12385;51.412;5.540;2023-09-30T08:56:26;14.70;99.90
24262;DHT22;12385;51.412;5.540;2023-09-30T08:58:57;14.80;99.90
24262;DHT22;12385;51.412;5.540;2023-09-30T09:01:25;14.80;99.90
24262;DHT22;12385;51.412;5.540;2023-09-30T09:03:51;14.90;99.90
24262;DHT22;12385;51.412;5.540;2023-09-30T09:06:22;15.00;99.90
24262;DHT22;12385;51.412;5.540;2023-09-30T09:08:47;15.00;99.90
24262;DHT22;12385;51.412;5.540;2023-09-30T09:11:14;15.00;99.90
24262;DHT22;12385;51.412;5.540;2023-09-30T09:13:47;15.10;99.90
24262;DHT22;12385;51.412;5.540;2023-09-30T09:16:16;15.20;99.90
24262;DHT22;12385;51.412;5.540;2023-09-30T09:18:43;15.30;99.90
24262;DHT22;12385;51.412;5.540;2023-09-30T09:21:09;15.40;99.90
24262;DHT22;12385;51.412;5.540;2023-09-30T09:23:46;15.50;99.90
24262;DHT22;12385;51.412;5.540;2023-09-30T09:26:29;15.50;99.90
24262;DHT22;12385;51.412;5.540;2023-09-30T09:29:04;15.60;99.90
24262;DHT22;12385;51.412;5.540;2023-09-30T09:31:34;15.70;99.90
24262;DHT22;12385;51.412;5.540;2023-09-30T09:34:04;15.70;99.90
24262;DHT22;12385;51.412;5.540;2023-09-30T09:36:42;15.80;99.90
24262;DHT22;12385;51.412;5.540;2023-09-30T09:39:10;15.80;99.90
24262;DHT22;12385;51.412;5.540;2023-09-30T09:42:05;15.90;99.90
24262;DHT22;12385;51.412;5.540;2023-09-30T09:44:33;16.00;99.90
24262;DHT22;12385;51.412;5.540;2023-09-30T09:47:02;16.00;99.90
24262;DHT22;12385;51.412;5.540;2023-09-30T09:49:29;16.10;99.90
24262;DHT22;12385;51.412;5.540;2023-09-30T09:51:57;16.10;99.90
24262;DHT22;12385;51.412;5.540;2023-09-30T09:54:24;16.20;99.90
24262;DHT22;12385;51.412;5.540;2023-09-30T09:56:51;16.30;99.90
24262;DHT22;12385;51.412;5.540;2023-09-30T09:59:19;16.30;99.90
24262;DHT22;12385;51.412;5.540;2023-09-30T10:01:46;16.30;99.90
24262;DHT22;12385;51.412;5.540;2023-09-30T10:04:14;16.50;99.90
24262;DHT22;12385;51.412;5.540;2023-09-30T10:06:41;16.40;99.90
24262;DHT22;12385;51.412;5.540;2023-09-30T10:09:09;16.50;99.90
24262;DHT22;12385;51.412;5.540;2023-09-30T10:11:38;16.60;99.90
24262;DHT22;12385;51.412;5.540;2023-09-30T10:14:05;16.70;99.90
24262;DHT22;12385;51.412;5.540;2023-09-30T10:21:34;16.90;99.90
24262;DHT22;12385;51.412;5.540;2023-09-30T10:27:51;16.90;99.90
24262;DHT22;12385;51.412;5.540;2023-09-30T10:35:19;17.00;99.90
24262;DHT22;12385;51.412;5.540;2023-09-30T10:37:45;17.00;99.90
24262;DHT22;12385;51.412;5.540;2023-09-30T10:42:51;17.20;99.90
24262;DHT22;12385;51.412;5.540;2023-09-30T10:50:57;17.40;99.90
24262;DHT22;12385;51.412;5.540;2023-09-30T10:53:25;17.40;99.90
24262;DHT22;12385;51.412;5.540;2023-09-30T10:56:00;17.50;99.90
24262;DHT22;12385;51.412;5.540;2023-09-30T10:58:59;17.60;99.90
24262;DHT22;12385;51.412;5.540;2023-09-30T11:01:32;17.80;99.90
24262;DHT22;12385;51.412;5.540;2023-09-30T11:03:59;17.90;99.90
24262;DHT22;12385;51.412;5.540;2023-09-30T11:06:28;18.00;99.90
24262;DHT22;12385;51.412;5.540;2023-09-30T11:08:56;18.10;99.90
24262;DHT22;12385;51.412;5.540;2023-09-30T11:11:40;18.20;99.90
24262;DHT22;12385;51.412;5.540;2023-09-30T11:16:52;18.20;99.90
24262;DHT22;12385;51.412;5.540;2023-09-30T11:19:19;18.10;99.90
24262;DHT22;12385;51.412;5.540;2023-09-30T11:21:52;18.20;99.90
24262;DHT22;12385;51.412;5.540;2023-09-30T11:24:19;18.20;99.90
24262;DHT22;12385;51.412;5.540;2023-09-30T11:26:45;18.20;99.90
24262;DHT22;12385;51.412;5.540;2023-09-30T11:29:12;18.20;99.90
24262;DHT22;12385;51.412;5.540;2023-09-30T11:31:39;18.30;99.90
24262;DHT22;12385;51.412;5.540;2023-09-30T11:34:06;18.40;99.90
24262;DHT22;12385;51.412;5.540;2023-09-30T11:36:38;18.40;99.90
24262;DHT22;12385;51.412;5.540;2023-09-30T11:39:05;18.50;99.90
24262;DHT22;12385;51.412;5.540;2023-09-30T11:41:41;18.60;99.90
24262;DHT22;12385;51.412;5.540;2023-09-30T11:44:10;18.70;99.90
24262;DHT22;12385;51.412;5.540;2023-09-30T11:46:57;18.70;99.90
24262;DHT22;12385;51.412;5.540;2023-09-30T11:49:31;18.90;99.90
24262;DHT22;12385;51.412;5.540;2023-09-30T11:51:59;19.00;99.90
24262;DHT22;12385;51.412;5.540;2023-09-30T11:54:36;19.00;99.90
24262;DHT22;12385;51.412;5.540;2023-09-30T11:57:10;19.20;99.90
24262;DHT22;12385;51.412;5.540;2023-09-30T11:59:37;19.20;99.90
24262;DHT22;12385;51.412;5.540;2023-09-30T12:02:04;19.40;99.90
24262;DHT22;12385;51.412;5.540;2023-09-30T12:04:31;19.50;99.90
24262;DHT22;12385;51.412;5.540;2023-09-30T12:06:57;19.60;99.90
24262;DHT22;12385;51.412;5.540;2023-09-30T12:09:23;19.70;99.90
24262;DHT22;12385;51.412;5.540;2023-09-30T12:11:51;19.80;99.90
24262;DHT22;12385;51.412;5.540;2023-09-30T12:14:17;19.90;99.90
24262;DHT22;12385;51.412;5.540;2023-09-30T12:16:42;20.00;99.90
24262;DHT22;12385;51.412;5.540;2023-09-30T12:19:11;20.10;99.90
24262;DHT22;12385;51.412;5.540;2023-09-30T12:21:37;20.10;99.90
24262;DHT22;12385;51.412;5.540;2023-09-30T12:24:03;20.20;99.90
24262;DHT22;12385;51.412;5.540;2023-09-30T12:26:30;20.20;99.90
24262;DHT22;12385;51.412;5.540;2023-09-30T12:28:56;20.20;99.90
24262;DHT22;12385;51.412;5.540;2023-09-30T12:31:22;20.20;99.90
24262;DHT22;12385;51.412;5.540;2023-09-30T12:33:48;20.10;99.90
24262;DHT22;12385;51.412;5.540;2023-09-30T12:36:17;20.10;99.90
24262;DHT22;12385;51.412;5.540;2023-09-30T12:38:42;20.10;99.90
24262;DHT22;12385;51.412;5.540;2023-09-30T12:41:08;20.10;99.90
24262;DHT22;12385;51.412;5.540;2023-09-30T12:43:34;20.20;99.90
24262;DHT22;12385;51.412;5.540;2023-09-30T12:45:59;20.30;99.90
24262;DHT22;12385;51.412;5.540;2023-09-30T12:48:26;20.30;99.90
24262;DHT22;12385;51.412;5.540;2023-09-30T12:50:52;20.40;99.90
24262;DHT22;12385;51.412;5.540;2023-09-30T12:53:18;20.40;99.90
24262;DHT22;12385;51.412;5.540;2023-09-30T12:55:43;20.50;99.90
24262;DHT22;12385;51.412;5.540;2023-09-30T12:58:09;20.70;99.90
24262;DHT22;12385;51.412;5.540;2023-09-30T13:00:34;20.80;99.90
24262;DHT22;12385;51.412;5.540;2023-09-30T13:03:01;20.80;99.90
24262;DHT22;12385;51.412;5.540;2023-09-30T13:05:27;20.80;99.90
24262;DHT22;12385;51.412;5.540;2023-09-30T13:07:56;20.70;99.90
24262;DHT22;12385;51.412;5.540;2023-09-30T13:10:22;20.70;99.90
24262;DHT22;12385;51.412;5.540;2023-09-30T13:12:48;20.60;99.90
24262;DHT22;12385;51.412;5.540;2023-09-30T13:15:16;20.60;99.90
24262;DHT22;12385;51.412;5.540;2023-09-30T13:17:44;20.60;99.90
24262;DHT22;12385;51.412;5.540;2023-09-30T13:20:11;20.60;99.90
24262;DHT22;12385;51.412;5.540;2023-09-30T13:22:38;20.60;99.90
24262;DHT22;12385;51.412;5.540;2023-09-30T13:25:05;20.70;99.90
24262;DHT22;12385;51.412;5.540;2023-09-30T13:27:31;20.70;99.90
24262;DHT22;12385;51.412;5.540;2023-09-30T13:29:58;20.70;99.90
24262;DHT22;12385;51.412;5.540;2023-09-30T13:32:24;20.80;99.90
24262;DHT22;12385;51.412;5.540;2023-09-30T13:34:53;20.80;99.90
24262;DHT22;12385;51.412;5.540;2023-09-30T13:37:20;20.70;99.90
24262;DHT22;12385;51.412;5.540;2023-09-30T13:39:45;20.70;99.90
24262;DHT22;12385;51.412;5.540;2023-09-30T13:42:11;20.60;99.90
24262;DHT22;12385;51.412;5.540;2023-09-30T13:44:37;20.60;99.90
24262;DHT22;12385;51.412;5.540;2023-09-30T13:47:02;20.60;99.90
24262;DHT22;12385;51.412;5.540;2023-09-30T13:49:28;20.70;99.90
24262;DHT22;12385;51.412;5.540;2023-09-30T13:51:55;20.60;99.90
24262;DHT22;12385;51.412;5.540;2023-09-30T13:54:21;20.60;99.90
24262;DHT22;12385;51.412;5.540;2023-09-30T13:56:46;20.60;99.90
24262;DHT22;12385;51.412;5.540;2023-09-30T13:59:13;20.60;99.90
24262;DHT22;12385;51.412;5.540;2023-09-30T14:01:39;20.60;99.90
24262;DHT22;12385;51.412;5.540;2023-09-30T14:04:07;20.60;99.90
24262;DHT22;12385;51.412;5.540;2023-09-30T14:06:33;20.70;99.90
24262;DHT22;12385;51.412;5.540;2023-09-30T14:08:58;20.80;99.90
24262;DHT22;12385;51.412;5.540;2023-09-30T14:11:24;21.00;99.90
24262;DHT22;12385;51.412;5.540;2023-09-30T14:13:50;21.30;99.90
24262;DHT22;12385;51.412;5.540;2023-09-30T14:16:15;21.60;99.90
24262;DHT22;12385;51.412;5.540;2023-09-30T14:18:41;21.90;99.90
24262;DHT22;12385;51.412;5.540;2023-09-30T14:21:08;22.20;99.90
24262;DHT22;12385;51.412;5.540;2023-09-30T14:23:33;22.50;99.90
24262;DHT22;12385;51.412;5.540;2023-09-30T14:25:59;22.60;99.90
24262;DHT22;12385;51.412;5.540;2023-09-30T14:28:26;22.80;99.90
24262;DHT22;12385;51.412;5.540;2023-09-30T14:30:51;22.80;99.90
24262;DHT22;12385;51.412;5.540;2023-09-30T14:33:17;22.80;99.90
24262;DHT22;12385;51.412;5.540;2023-09-30T14:35:45;22.60;99.90
24262;DHT22;12385;51.412;5.540;2023-09-30T14:38:11;22.60;99.90
24262;DHT22;12385;51.412;5.540;2023-09-30T14:40:40;22.40;99.90
24262;DHT22;12385;51.412;5.540;2023-09-30T14:43:07;22.30;99.90
24262;DHT22;12385;51.412;5.540;2023-09-30T14:45:37;22.20;99.90
24262;DHT22;12385;51.412;5.540;2023-09-30T14:48:05;22.20;99.90
24262;DHT22;12385;51.412;5.540;2023-09-30T14:50:31;22.10;99.90
24262;DHT22;12385;51.412;5.540;2023-09-30T14:52:56;22.20;99.90
24262;DHT22;12385;51.412;5.540;2023-09-30T14:55:22;22.20;99.90
24262;DHT22;12385;51.412;5.540;2023-09-30T14:57:47;22.20;99.90
24262;DHT22;12385;51.412;5.540;2023-09-30T15:00:13;22.20;99.90
24262;DHT22;12385;51.412;5.540;2023-09-30T15:02:39;22.20;99.90
24262;DHT22;12385;51.412;5.540;2023-09-30T15:05:06;22.30;99.90
24262;DHT22;12385;51.412;5.540;2023-09-30T15:07:33;22.40;99.90
24262;DHT22;12385;51.412;5.540;2023-09-30T15:09:58;22.50;99.90
24262;DHT22;12385;51.412;5.540;2023-09-30T15:12:24;22.50;99.90
24262;DHT22;12385;51.412;5.540;2023-09-30T15:14:51;22.40;99.90
24262;DHT22;12385;51.412;5.540;2023-09-30T15:17:17;22.40;99.90
24262;DHT22;12385;51.412;5.540;2023-09-30T15:19:43;22.30;99.90
24262;DHT22;12385;51.412;5.540;2023-09-30T15:22:08;22.10;99.90
24262;DHT22;12385;51.412;5.540;2023-09-30T15:24:34;22.00;99.90
24262;DHT22;12385;51.412;5.540;2023-09-30T15:26:59;22.00;99.90
24262;DHT22;12385;51.412;5.540;2023-09-30T15:29:26;21.90;99.90
24262;DHT22;12385;51.412;5.540;2023-09-30T15:31:52;21.70;99.90
24262;DHT22;12385;51.412;5.540;2023-09-30T15:34:18;21.60;99.90
24262;DHT22;12385;51.412;5.540;2023-09-30T15:36:43;21.50;99.90
24262;DHT22;12385;51.412;5.540;2023-09-30T15:39:09;21.40;99.90
24262;DHT22;12385;51.412;5.540;2023-09-30T15:41:35;21.30;99.90
24262;DHT22;12385;51.412;5.540;2023-09-30T15:44:01;21.20;99.90
24262;DHT22;12385;51.412;5.540;2023-09-30T15:46:26;21.20;99.90
24262;DHT22;12385;51.412;5.540;2023-09-30T15:48:52;21.10;99.90
24262;DHT22;12385;51.412;5.540;2023-09-30T15:51:17;21.00;99.90
24262;DHT22;12385;51.412;5.540;2023-09-30T15:53:43;21.00;99.90